sensor_id;sensor_type;location;lat;lon;timestamp;pressure;altitude;pressure_sealevel;temperature;humidity
61528;BME280;47395;42.032;-8.634;2023-02-18T00:00:34;102114.09;;;9.77;71.95
61528;BME280;47395;42.032;-8.634;2023-02-18T00:02:35;102106.00;;;9.85;72.21
61528;BME280;47395;42.032;-8.634;2023-02-18T00:04:36;102118.91;;;9.96;71.98
61528;BME280;47395;42.032;-8.634;2023-02-18T00:06:37;102114.34;;;10.04;71.73
61528;BME280;47395;42.032;-8.634;2023-02-18T00:08:38;102107.03;;;10.16;71.51
61528;BME280;47395;42.032;-8.634;2023-02-18T00:10:40;102106.09;;;10.18;70.90
61528;BME280;47395;42.032;-8.634;2023-02-18T00:12:41;102100.94;;;10.14;70.37
61528;BME280;47395;42.032;-8.634;2023-02-18T00:14:42;102099.13;;;10.16;70.51
61528;BME280;47395;42.032;-8.634;2023-02-18T00:16:44;102111.50;;;10.12;69.97
61528;BME280;47395;42.032;-8.634;2023-02-18T00:18:45;102110.78;;;10.05;70.03
61528;BME280;47395;42.032;-8.634;2023-02-18T00:20:46;102111.78;;;10.01;70.21
61528;BME280;47395;42.032;-8.634;2023-02-18T00:22:47;102111.00;;;9.98;70.15
61528;BME280;47395;42.032;-8.634;2023-02-18T00:24:48;102110.03;;;10.00;69.80
61528;BME280;47395;42.032;-8.634;2023-02-18T00:26:50;102108.22;;;10.02;69.85
61528;BME280;47395;42.032;-8.634;2023-02-18T00:28:51;102100.22;;;10.07;70.38
61528;BME280;47395;42.032;-8.634;2023-02-18T00:30:53;102100.00;;;10.16;70.19
61528;BME280;47395;42.032;-8.634;2023-02-18T00:32:54;102107.63;;;10.27;69.97
61528;BME280;47395;42.032;-8.634;2023-02-18T00:34:55;102115.47;;;10.30;69.02
61528;BME280;47395;42.032;-8.634;2023-02-18T00:36:57;102114.63;;;9.92;69.38
61528;BME280;47395;42.032;-8.634;2023-02-18T00:39:00;102118.72;;;9.66;70.55
61528;BME280;47395;42.032;-8.634;2023-02-18T00:41:01;102124.22;;;9.55;71.64
61528;BME280;47395;42.032;-8.634;2023-02-18T00:43:02;102117.06;;;9.62;71.37
61528;BME280;47395;42.032;-8.634;2023-02-18T00:45:05;102114.41;;;9.62;71.60
61528;BME280;47395;42.032;-8.634;2023-02-18T00:47:06;102118.84;;;9.61;71.13
61528;BME280;47395;42.032;-8.634;2023-02-18T00:49:07;102115.44;;;9.56;71.04
61528;BME280;47395;42.032;-8.634;2023-02-18T00:51:09;102120.81;;;9.51;70.97
61528;BME280;47395;42.032;-8.634;2023-02-18T00:53:10;102121.72;;;9.50;71.18
61528;BME280;47395;42.032;-8.634;2023-02-18T00:55:11;102117.22;;;9.54;70.96
61528;BME280;47395;42.032;-8.634;2023-02-18T00:57:12;102118.16;;;9.51;70.74
61528;BME280;47395;42.032;-8.634;2023-02-18T00:59:13;102113.88;;;9.47;70.19
61528;BME280;47395;42.032;-8.634;2023-02-18T01:01:14;102111.28;;;9.44;70.25
61528;BME280;47395;42.032;-8.634;2023-02-18T01:03:15;102106.06;;;9.43;70.50
61528;BME280;47395;42.032;-8.634;2023-02-18T01:05:16;102113.16;;;9.39;70.46
61528;BME280;47395;42.032;-8.634;2023-02-18T01:07:17;102108.06;;;9.31;71.06
61528;BME280;47395;42.032;-8.634;2023-02-18T01:09:18;102116.69;;;9.38;71.04
61528;BME280;47395;42.032;-8.634;2023-02-18T01:11:21;102111.59;;;9.32;70.14
61528;BME280;47395;42.032;-8.634;2023-02-18T01:13:22;102115.03;;;9.34;70.58
61528;BME280;47395;42.032;-8.634;2023-02-18T01:15:23;102109.81;;;9.32;70.26
61528;BME280;47395;42.032;-8.634;2023-02-18T01:17:24;102114.28;;;9.27;70.21
61528;BME280;47395;42.032;-8.634;2023-02-18T01:19:25;102104.97;;;9.10;70.31
61528;BME280;47395;42.032;-8.634;2023-02-18T01:21:26;102114.00;;;8.98;70.39
61528;BME280;47395;42.032;-8.634;2023-02-18T01:23:27;102108.19;;;8.81;71.39
61528;BME280;47395;42.032;-8.634;2023-02-18T01:25:29;102105.09;;;8.58;72.63
61528;BME280;47395;42.032;-8.634;2023-02-18T01:27:30;102107.63;;;8.63;72.87
61528;BME280;47395;42.032;-8.634;2023-02-18T01:29:31;102111.16;;;8.62;72.67
61528;BME280;47395;42.032;-8.634;2023-02-18T01:31:32;102100.84;;;8.53;73.04
61528;BME280;47395;42.032;-8.634;2023-02-18T01:33:33;102106.91;;;8.55;73.03
61528;BME280;47395;42.032;-8.634;2023-02-18T01:35:38;102109.66;;;8.45;73.05
61528;BME280;47395;42.032;-8.634;2023-02-18T01:37:39;102108.88;;;8.42;73.16
61528;BME280;47395;42.032;-8.634;2023-02-18T01:39:39;102106.09;;;8.53;73.11
61528;BME280;47395;42.032;-8.634;2023-02-18T01:41:40;102102.66;;;8.46;72.74
61528;BME280;47395;42.032;-8.634;2023-02-18T01:43:41;102100.81;;;8.54;72.95
61528;BME280;47395;42.032;-8.634;2023-02-18T01:46:03;102104.25;;;8.56;72.48
61528;BME280;47395;42.032;-8.634;2023-02-18T01:48:09;102108.59;;;8.59;72.04
61528;BME280;47395;42.032;-8.634;2023-02-18T01:50:11;102117.59;;;8.42;72.95
61528;BME280;47395;42.032;-8.634;2023-02-18T01:52:17;102105.22;;;8.49;72.79
61528;BME280;47395;42.032;-8.634;2023-02-18T01:54:24;102107.78;;;8.52;73.28
61528;BME280;47395;42.032;-8.634;2023-02-18T01:56:48;102105.00;;;8.65;73.06
61528;BME280;47395;42.032;-8.634;2023-02-18T01:58:53;102103.00;;;8.76;72.16
61528;BME280;47395;42.032;-8.634;2023-02-18T02:00:54;102099.59;;;8.72;71.07
61528;BME280;47395;42.032;-8.634;2023-02-18T02:02:55;102097.00;;;8.69;71.61
61528;BME280;47395;42.032;-8.634;2023-02-18T02:04:57;102097.69;;;8.29;73.88
61528;BME280;47395;42.032;-8.634;2023-02-18T02:06:57;102094.81;;;8.44;73.56
61528;BME280;47395;42.032;-8.634;2023-02-18T02:09:03;102090.19;;;8.60;73.75
61528;BME280;47395;42.032;-8.634;2023-02-18T02:16:13;102086.94;;;8.93;72.96
61528;BME280;47395;42.032;-8.634;2023-02-18T02:18:47;102091.53;;;8.82;72.08
61528;BME280;47395;42.032;-8.634;2023-02-18T02:21:28;102092.44;;;8.81;72.13
61528;BME280;47395;42.032;-8.634;2023-02-18T02:26:48;102089.53;;;8.95;73.10
61528;BME280;47395;42.032;-8.634;2023-02-18T02:39:39;102089.03;;;8.74;70.62
61528;BME280;47395;42.032;-8.634;2023-02-18T02:41:50;102086.47;;;8.71;70.92
61528;BME280;47395;42.032;-8.634;2023-02-18T02:44:06;102077.63;;;8.75;71.02
61528;BME280;47395;42.032;-8.634;2023-02-18T02:46:33;102081.19;;;8.72;71.15
61528;BME280;47395;42.032;-8.634;2023-02-18T02:51:45;102073.41;;;8.68;70.86
61528;BME280;47395;42.032;-8.634;2023-02-18T02:53:47;102078.69;;;8.66;70.72
61528;BME280;47395;42.032;-8.634;2023-02-18T02:55:48;102078.75;;;8.63;70.52
61528;BME280;47395;42.032;-8.634;2023-02-18T02:57:54;102072.75;;;8.56;70.37
61528;BME280;47395;42.032;-8.634;2023-02-18T03:00:05;102072.81;;;8.50;70.64
61528;BME280;47395;42.032;-8.634;2023-02-18T03:02:29;102068.41;;;8.51;70.59
61528;BME280;47395;42.032;-8.634;2023-02-18T03:06:01;102057.28;;;8.39;71.60
61528;BME280;47395;42.032;-8.634;2023-02-18T03:07:52;102051.50;;;8.69;71.50
61528;BME280;47395;42.032;-8.634;2023-02-18T03:10:26;102050.25;;;8.87;71.19
61528;BME280;47395;42.032;-8.634;2023-02-18T03:12:43;102048.31;;;8.97;68.80
61528;BME280;47395;42.032;-8.634;2023-02-18T03:15:07;102047.97;;;8.70;69.26
61528;BME280;47395;42.032;-8.634;2023-02-18T03:17:18;102050.63;;;8.68;69.35
61528;BME280;47395;42.032;-8.634;2023-02-18T03:19:48;102053.94;;;8.29;69.81
61528;BME280;47395;42.032;-8.634;2023-02-18T03:21:57;102058.31;;;8.29;70.17
61528;BME280;47395;42.032;-8.634;2023-02-18T03:24:09;102054.13;;;8.17;70.46
61528;BME280;47395;42.032;-8.634;2023-02-18T03:26:15;102051.63;;;8.12;70.94
61528;BME280;47395;42.032;-8.634;2023-02-18T03:28:20;102050.75;;;8.10;70.96
61528;BME280;47395;42.032;-8.634;2023-02-18T03:30:28;102047.38;;;8.03;70.81
61528;BME280;47395;42.032;-8.634;2023-02-18T03:32:33;102050.91;;;8.01;70.69
61528;BME280;47395;42.032;-8.634;2023-02-18T03:34:39;102041.41;;;7.93;70.68
61528;BME280;47395;42.032;-8.634;2023-02-18T03:36:42;102049.28;;;7.92;70.72
61528;BME280;47395;42.032;-8.634;2023-02-18T03:38:53;102054.59;;;7.89;70.35
61528;BME280;47395;42.032;-8.634;2023-02-18T03:40:56;102045.88;;;7.87;70.46
61528;BME280;47395;42.032;-8.634;2023-02-18T03:42:58;102048.56;;;7.83;70.02
61528;BME280;47395;42.032;-8.634;2023-02-18T03:44:59;102052.06;;;7.82;70.06
61528;BME280;47395;42.032;-8.634;2023-02-18T03:47:00;102055.59;;;7.80;70.29
61528;BME280;47395;42.032;-8.634;2023-02-18T03:49:01;102049.53;;;7.76;70.26
61528;BME280;47395;42.032;-8.634;2023-02-18T03:51:02;102046.03;;;7.76;70.34
61528;BME280;47395;42.032;-8.634;2023-02-18T03:53:03;102039.94;;;7.77;70.30
61528;BME280;47395;42.032;-8.634;2023-02-18T03:55:05;102043.41;;;7.76;70.65
61528;BME280;47395;42.032;-8.634;2023-02-18T03:57:06;102037.50;;;7.63;71.89
61528;BME280;47395;42.032;-8.634;2023-02-18T03:59:07;102044.34;;;7.71;70.94
61528;BME280;47395;42.032;-8.634;2023-02-18T04:01:07;102052.28;;;7.70;70.71
61528;BME280;47395;42.032;-8.634;2023-02-18T04:03:08;102053.16;;;7.67;70.68
61528;BME280;47395;42.032;-8.634;2023-02-18T04:05:10;102052.34;;;7.64;70.81
61528;BME280;47395;42.032;-8.634;2023-02-18T04:07:11;102045.44;;;7.58;70.41
61528;BME280;47395;42.032;-8.634;2023-02-18T04:09:12;102049.06;;;7.51;70.74
61528;BME280;47395;42.032;-8.634;2023-02-18T04:11:12;102056.13;;;7.46;71.17
61528;BME280;47395;42.032;-8.634;2023-02-18T04:13:13;102049.19;;;7.41;71.62
61528;BME280;47395;42.032;-8.634;2023-02-18T04:15:14;102063.16;;;7.42;71.71
61528;BME280;47395;42.032;-8.634;2023-02-18T04:17:15;102053.53;;;7.42;71.38
61528;BME280;47395;42.032;-8.634;2023-02-18T04:19:16;102062.31;;;7.40;71.17
61528;BME280;47395;42.032;-8.634;2023-02-18T04:21:17;102059.84;;;7.29;71.35
61528;BME280;47395;42.032;-8.634;2023-02-18T04:23:18;102057.19;;;7.30;71.39
61528;BME280;47395;42.032;-8.634;2023-02-18T04:25:19;102062.44;;;7.32;71.02
61528;BME280;47395;42.032;-8.634;2023-02-18T04:27:20;102056.28;;;7.33;70.94
61528;BME280;47395;42.032;-8.634;2023-02-18T04:29:21;102054.56;;;7.32;70.70
61528;BME280;47395;42.032;-8.634;2023-02-18T04:31:21;102059.81;;;7.30;70.48
61528;BME280;47395;42.032;-8.634;2023-02-18T04:33:22;102061.56;;;7.30;70.78
61528;BME280;47395;42.032;-8.634;2023-02-18T04:35:23;102050.25;;;7.26;70.39
61528;BME280;47395;42.032;-8.634;2023-02-18T04:37:24;102051.97;;;7.29;70.19
61528;BME280;47395;42.032;-8.634;2023-02-18T04:39:25;102057.22;;;7.27;70.06
61528;BME280;47395;42.032;-8.634;2023-02-18T04:41:25;102065.06;;;7.30;70.10
61528;BME280;47395;42.032;-8.634;2023-02-18T04:43:26;102056.41;;;7.24;70.45
61528;BME280;47395;42.032;-8.634;2023-02-18T04:45:27;102059.94;;;7.21;70.77
61528;BME280;47395;42.032;-8.634;2023-02-18T04:47:28;102057.34;;;7.21;71.12
61528;BME280;47395;42.032;-8.634;2023-02-18T04:49:28;102060.81;;;7.22;71.13
61528;BME280;47395;42.032;-8.634;2023-02-18T04:51:29;102064.28;;;7.24;71.11
61528;BME280;47395;42.032;-8.634;2023-02-18T04:53:30;102062.59;;;7.20;71.48
61528;BME280;47395;42.032;-8.634;2023-02-18T04:55:31;102060.81;;;7.20;71.60
61528;BME280;47395;42.032;-8.634;2023-02-18T04:57:32;102062.88;;;6.96;72.83
61528;BME280;47395;42.032;-8.634;2023-02-18T04:59:33;102069.00;;;6.95;72.89
61528;BME280;47395;42.032;-8.634;2023-02-18T05:07:02;102072.56;;;6.86;73.25
61528;BME280;47395;42.032;-8.634;2023-02-18T05:09:02;102070.63;;;7.04;73.37
61528;BME280;47395;42.032;-8.634;2023-02-18T05:11:07;102067.19;;;6.99;72.98
61528;BME280;47395;42.032;-8.634;2023-02-18T05:13:08;102074.16;;;7.00;72.67
61528;BME280;47395;42.032;-8.634;2023-02-18T05:15:09;102074.22;;;6.97;72.93
61528;BME280;47395;42.032;-8.634;2023-02-18T05:17:09;102067.28;;;6.92;72.46
61528;BME280;47395;42.032;-8.634;2023-02-18T05:19:14;102080.44;;;6.88;72.43
61528;BME280;47395;42.032;-8.634;2023-02-18T05:21:15;102068.22;;;6.87;72.61
61528;BME280;47395;42.032;-8.634;2023-02-18T05:23:16;102070.81;;;6.88;72.76
61528;BME280;47395;42.032;-8.634;2023-02-18T05:25:19;102064.66;;;6.92;72.71
61528;BME280;47395;42.032;-8.634;2023-02-18T05:27:20;102071.56;;;6.98;72.97
61528;BME280;47395;42.032;-8.634;2023-02-18T05:29:21;102073.25;;;7.02;73.08
61528;BME280;47395;42.032;-8.634;2023-02-18T05:31:22;102071.44;;;7.08;73.02
61528;BME280;47395;42.032;-8.634;2023-02-18T05:33:23;102072.28;;;7.11;72.86
61528;BME280;47395;42.032;-8.634;2023-02-18T05:35:23;102061.78;;;7.14;72.46
61528;BME280;47395;42.032;-8.634;2023-02-18T05:37:24;102070.56;;;7.10;72.16
61528;BME280;47395;42.032;-8.634;2023-02-18T05:39:25;102065.34;;;7.07;72.28
61528;BME280;47395;42.032;-8.634;2023-02-18T05:41:26;102066.31;;;7.00;72.16
61528;BME280;47395;42.032;-8.634;2023-02-18T05:43:27;102063.88;;;6.86;71.95
61528;BME280;47395;42.032;-8.634;2023-02-18T05:45:27;102069.03;;;6.90;72.26
61528;BME280;47395;42.032;-8.634;2023-02-18T05:47:28;102069.97;;;6.85;71.99
61528;BME280;47395;42.032;-8.634;2023-02-18T05:49:31;102068.28;;;6.81;72.07
61528;BME280;47395;42.032;-8.634;2023-02-18T05:51:32;102073.50;;;6.82;72.02
61528;BME280;47395;42.032;-8.634;2023-02-18T05:53:33;102070.88;;;6.82;71.84
61528;BME280;47395;42.032;-8.634;2023-02-18T05:55:34;102075.28;;;6.82;71.62
61528;BME280;47395;42.032;-8.634;2023-02-18T05:57:38;102076.13;;;6.82;71.92
61528;BME280;47395;42.032;-8.634;2023-02-18T05:59:40;102075.22;;;6.83;71.70
61528;BME280;47395;42.032;-8.634;2023-02-18T06:01:41;102077.00;;;6.81;71.81
61528;BME280;47395;42.032;-8.634;2023-02-18T06:03:41;102070.84;;;6.85;71.94
61528;BME280;47395;42.032;-8.634;2023-02-18T06:05:42;102079.63;;;6.81;71.87
61528;BME280;47395;42.032;-8.634;2023-02-18T06:07:43;102085.69;;;6.85;72.10
61528;BME280;47395;42.032;-8.634;2023-02-18T06:09:44;102090.88;;;6.89;71.70
61528;BME280;47395;42.032;-8.634;2023-02-18T06:11:45;102090.91;;;6.88;71.43
61528;BME280;47395;42.032;-8.634;2023-02-18T06:13:46;102093.63;;;6.80;71.13
61528;BME280;47395;42.032;-8.634;2023-02-18T06:15:49;102100.56;;;6.84;71.67
61528;BME280;47395;42.032;-8.634;2023-02-18T06:17:50;102086.56;;;6.87;71.76
61528;BME280;47395;42.032;-8.634;2023-02-18T06:19:51;102080.44;;;6.85;71.77
61528;BME280;47395;42.032;-8.634;2023-02-18T06:21:52;102090.03;;;6.87;72.08
61528;BME280;47395;42.032;-8.634;2023-02-18T06:23:53;102085.56;;;6.97;72.06
61528;BME280;47395;42.032;-8.634;2023-02-18T06:25:54;102091.59;;;7.04;72.66
61528;BME280;47395;42.032;-8.634;2023-02-18T06:27:55;102088.13;;;7.02;71.42
61528;BME280;47395;42.032;-8.634;2023-02-18T06:29:56;102094.75;;;7.31;73.64
61528;BME280;47395;42.032;-8.634;2023-02-18T06:31:57;102108.78;;;7.27;71.36
61528;BME280;47395;42.032;-8.634;2023-02-18T06:33:58;102095.69;;;7.27;70.86
61528;BME280;47395;42.032;-8.634;2023-02-18T06:36:02;102098.38;;;7.22;71.01
61528;BME280;47395;42.032;-8.634;2023-02-18T06:38:06;102097.50;;;7.20;70.23
61528;BME280;47395;42.032;-8.634;2023-02-18T06:40:08;102097.50;;;7.20;71.13
61528;BME280;47395;42.032;-8.634;2023-02-18T06:42:09;102088.56;;;7.38;73.32
61528;BME280;47395;42.032;-8.634;2023-02-18T06:44:10;102097.88;;;7.58;72.48
61528;BME280;47395;42.032;-8.634;2023-02-18T06:46:10;102096.97;;;7.61;70.55
61528;BME280;47395;42.032;-8.634;2023-02-18T06:48:12;102096.25;;;7.52;69.86
61528;BME280;47395;42.032;-8.634;2023-02-18T06:50:13;102095.53;;;7.39;69.93
61528;BME280;47395;42.032;-8.634;2023-02-18T06:52:14;102082.56;;;7.27;70.26
61528;BME280;47395;42.032;-8.634;2023-02-18T06:54:15;102096.56;;;7.26;70.59
61528;BME280;47395;42.032;-8.634;2023-02-18T06:56:16;102091.34;;;7.26;71.16
61528;BME280;47395;42.032;-8.634;2023-02-18T06:58:17;102093.06;;;7.27;73.76
61528;BME280;47395;42.032;-8.634;2023-02-18T07:00:18;102097.03;;;7.59;73.66
61528;BME280;47395;42.032;-8.634;2023-02-18T07:02:19;102104.59;;;7.81;72.37
61528;BME280;47395;42.032;-8.634;2023-02-18T07:04:20;102094.81;;;7.89;70.73
61528;BME280;47395;42.032;-8.634;2023-02-18T07:06:20;102099.22;;;7.87;69.79
61528;BME280;47395;42.032;-8.634;2023-02-18T07:08:21;102104.59;;;7.81;69.63
61528;BME280;47395;42.032;-8.634;2023-02-18T07:10:22;102104.78;;;7.67;69.37
61528;BME280;47395;42.032;-8.634;2023-02-18T07:12:23;102106.72;;;7.52;69.52
61528;BME280;47395;42.032;-8.634;2023-02-18T07:14:24;102101.66;;;7.38;69.87
61528;BME280;47395;42.032;-8.634;2023-02-18T07:16:26;102111.91;;;6.83;71.15
61528;BME280;47395;42.032;-8.634;2023-02-18T07:18:26;102105.59;;;7.00;71.46
61528;BME280;47395;42.032;-8.634;2023-02-18T07:20:27;102111.63;;;7.10;71.77
61528;BME280;47395;42.032;-8.634;2023-02-18T07:22:28;102105.38;;;7.18;71.59
61528;BME280;47395;42.032;-8.634;2023-02-18T07:24:29;102113.91;;;7.36;71.74
61528;BME280;47395;42.032;-8.634;2023-02-18T07:26:29;102120.94;;;7.32;69.81
61528;BME280;47395;42.032;-8.634;2023-02-18T07:28:30;102120.16;;;7.27;69.87
61528;BME280;47395;42.032;-8.634;2023-02-18T07:30:31;102122.94;;;7.13;69.36
61528;BME280;47395;42.032;-8.634;2023-02-18T07:32:32;102122.22;;;6.97;69.84
61528;BME280;47395;42.032;-8.634;2023-02-18T07:34:33;102111.72;;;7.03;70.43
61528;BME280;47395;42.032;-8.634;2023-02-18T07:36:33;102117.81;;;7.01;70.21
61528;BME280;47395;42.032;-8.634;2023-02-18T07:38:34;102119.56;;;7.02;70.23
61528;BME280;47395;42.032;-8.634;2023-02-18T07:40:35;102117.19;;;6.78;70.72
61528;BME280;47395;42.032;-8.634;2023-02-18T07:42:36;102116.97;;;7.02;71.70
61528;BME280;47395;42.032;-8.634;2023-02-18T07:44:37;102127.13;;;7.27;71.68
61528;BME280;47395;42.032;-8.634;2023-02-18T07:46:41;102118.09;;;7.51;72.31
61528;BME280;47395;42.032;-8.634;2023-02-18T07:48:43;102124.84;;;7.69;70.31
61528;BME280;47395;42.032;-8.634;2023-02-18T07:50:44;102108.06;;;7.81;70.76
61528;BME280;47395;42.032;-8.634;2023-02-18T07:52:46;102116.47;;;8.05;72.19
61528;BME280;47395;42.032;-8.634;2023-02-18T07:54:46;102125.88;;;8.19;68.60
61528;BME280;47395;42.032;-8.634;2023-02-18T07:56:47;102128.09;;;8.42;70.69
61528;BME280;47395;42.032;-8.634;2023-02-18T07:58:48;102128.69;;;8.60;70.15
61528;BME280;47395;42.032;-8.634;2023-02-18T08:00:50;102129.44;;;8.68;67.11
61528;BME280;47395;42.032;-8.634;2023-02-18T08:02:51;102133.94;;;8.60;65.14
61528;BME280;47395;42.032;-8.634;2023-02-18T08:04:52;102142.84;;;8.54;65.64
61528;BME280;47395;42.032;-8.634;2023-02-18T08:06:53;102151.56;;;8.52;65.41
61528;BME280;47395;42.032;-8.634;2023-02-18T08:08:53;102157.84;;;8.44;65.72
61528;BME280;47395;42.032;-8.634;2023-02-18T08:10:57;102147.72;;;8.21;65.86
61528;BME280;47395;42.032;-8.634;2023-02-18T08:12:58;102145.97;;;8.21;66.43
61528;BME280;47395;42.032;-8.634;2023-02-18T08:14:59;102155.75;;;8.08;66.49
61528;BME280;47395;42.032;-8.634;2023-02-18T08:17:00;102155.72;;;8.12;66.53
61528;BME280;47395;42.032;-8.634;2023-02-18T08:19:01;102164.66;;;8.01;67.03
61528;BME280;47395;42.032;-8.634;2023-02-18T08:21:05;102158.34;;;8.12;67.28
61528;BME280;47395;42.032;-8.634;2023-02-18T08:23:06;102154.75;;;8.19;67.48
61528;BME280;47395;42.032;-8.634;2023-02-18T08:25:07;102159.75;;;8.33;67.35
61528;BME280;47395;42.032;-8.634;2023-02-18T08:27:08;102165.50;;;8.58;67.05
61528;BME280;47395;42.032;-8.634;2023-02-18T08:29:11;102161.06;;;8.64;66.49
61528;BME280;47395;42.032;-8.634;2023-02-18T08:31:21;102165.63;;;9.86;63.69
61528;BME280;47395;42.032;-8.634;2023-02-18T08:33:22;102166.66;;;11.83;57.84
61528;BME280;47395;42.032;-8.634;2023-02-18T08:35:23;102154.84;;;13.98;51.96
61528;BME280;47395;42.032;-8.634;2023-02-18T08:37:24;102146.28;;;15.94;46.39
61528;BME280;47395;42.032;-8.634;2023-02-18T08:39:25;102144.34;;;17.52;42.46
61528;BME280;47395;42.032;-8.634;2023-02-18T08:41:25;102147.72;;;18.95;40.42
61528;BME280;47395;42.032;-8.634;2023-02-18T08:43:26;102146.47;;;20.14;38.37
61528;BME280;47395;42.032;-8.634;2023-02-18T08:45:27;102147.50;;;20.52;35.06
61528;BME280;47395;42.032;-8.634;2023-02-18T08:47:28;102155.19;;;21.34;33.96
61528;BME280;47395;42.032;-8.634;2023-02-18T08:49:29;102160.56;;;20.03;35.96
61528;BME280;47395;42.032;-8.634;2023-02-18T08:51:30;102157.47;;;19.67;36.05
61528;BME280;47395;42.032;-8.634;2023-02-18T08:53:31;102144.25;;;21.37;35.66
61528;BME280;47395;42.032;-8.634;2023-02-18T08:55:32;102144.72;;;21.93;33.91
61528;BME280;47395;42.032;-8.634;2023-02-18T08:57:34;102151.47;;;22.10;33.26
61528;BME280;47395;42.032;-8.634;2023-02-18T08:59:34;102158.28;;;22.98;30.50
61528;BME280;47395;42.032;-8.634;2023-02-18T09:01:35;102155.69;;;23.53;29.85
61528;BME280;47395;42.032;-8.634;2023-02-18T09:03:36;102164.47;;;23.55;29.86
61528;BME280;47395;42.032;-8.634;2023-02-18T09:05:38;102159.44;;;23.73;29.08
61528;BME280;47395;42.032;-8.634;2023-02-18T09:07:40;102167.38;;;24.41;27.97
61528;BME280;47395;42.032;-8.634;2023-02-18T09:09:41;102167.75;;;24.57;28.34
61528;BME280;47395;42.032;-8.634;2023-02-18T09:11:43;102173.03;;;25.11;27.45
61528;BME280;47395;42.032;-8.634;2023-02-18T09:13:44;102161.69;;;25.59;27.11
61528;BME280;47395;42.032;-8.634;2023-02-18T09:15:45;102164.25;;;26.19;26.34
61528;BME280;47395;42.032;-8.634;2023-02-18T09:17:46;102166.78;;;26.51;25.28
61528;BME280;47395;42.032;-8.634;2023-02-18T09:19:47;102162.59;;;26.76;24.96
61528;BME280;47395;42.032;-8.634;2023-02-18T09:21:48;102176.22;;;26.84;24.36
61528;BME280;47395;42.032;-8.634;2023-02-18T09:23:49;102170.06;;;26.92;24.29
61528;BME280;47395;42.032;-8.634;2023-02-18T09:25:50;102173.31;;;26.58;25.56
61528;BME280;47395;42.032;-8.634;2023-02-18T09:27:51;102168.13;;;26.94;25.06
61528;BME280;47395;42.032;-8.634;2023-02-18T09:29:52;102172.28;;;27.45;24.26
61528;BME280;47395;42.032;-8.634;2023-02-18T09:31:53;102178.13;;;28.05;23.37
61528;BME280;47395;42.032;-8.634;2023-02-18T09:33:56;102187.41;;;27.37;24.32
61528;BME280;47395;42.032;-8.634;2023-02-18T09:36:00;102188.72;;;28.34;22.79
61528;BME280;47395;42.032;-8.634;2023-02-18T09:38:01;102185.38;;;28.40;23.17
61528;BME280;47395;42.032;-8.634;2023-02-18T09:40:02;102184.19;;;29.39;21.85
61528;BME280;47395;42.032;-8.634;2023-02-18T09:42:06;102191.81;;;28.66;21.72
61528;BME280;47395;42.032;-8.634;2023-02-18T09:44:16;102194.72;;;28.73;22.27
61528;BME280;47395;42.032;-8.634;2023-02-18T09:46:21;102192.59;;;28.85;22.16
61528;BME280;47395;42.032;-8.634;2023-02-18T09:48:26;102184.94;;;29.07;22.03
61528;BME280;47395;42.032;-8.634;2023-02-18T09:50:32;102193.13;;;28.17;21.81
61528;BME280;47395;42.032;-8.634;2023-02-18T09:52:35;102193.06;;;28.09;21.20
61528;BME280;47395;42.032;-8.634;2023-02-18T09:54:37;102184.19;;;28.96;21.79
61528;BME280;47395;42.032;-8.634;2023-02-18T09:56:40;102180.88;;;29.54;21.82
61528;BME280;47395;42.032;-8.634;2023-02-18T09:58:43;102181.63;;;29.98;21.18
61528;BME280;47395;42.032;-8.634;2023-02-18T10:00:48;102188.59;;;30.42;18.53
61528;BME280;47395;42.032;-8.634;2023-02-18T10:03:17;102185.44;;;30.86;19.15
61528;BME280;47395;42.032;-8.634;2023-02-18T10:05:19;102186.19;;;30.55;19.67
61528;BME280;47395;42.032;-8.634;2023-02-18T10:07:26;102192.47;;;30.64;18.60
61528;BME280;47395;42.032;-8.634;2023-02-18T10:09:35;102184.47;;;31.19;18.24
61528;BME280;47395;42.032;-8.634;2023-02-18T10:11:42;102189.06;;;29.79;20.49
61528;BME280;47395;42.032;-8.634;2023-02-18T10:13:43;102188.03;;;30.55;19.63
61528;BME280;47395;42.032;-8.634;2023-02-18T10:15:45;102188.50;;;29.58;20.28
61528;BME280;47395;42.032;-8.634;2023-02-18T10:17:47;102193.81;;;30.68;20.30
61528;BME280;47395;42.032;-8.634;2023-02-18T10:19:48;102183.16;;;31.07;18.57
61528;BME280;47395;42.032;-8.634;2023-02-18T10:21:51;102182.03;;;31.64;18.52
61528;BME280;47395;42.032;-8.634;2023-02-18T10:24:13;102186.78;;;31.94;18.12
61528;BME280;47395;42.032;-8.634;2023-02-18T10:26:19;102180.72;;;31.84;19.44
61528;BME280;47395;42.032;-8.634;2023-02-18T10:28:21;102190.81;;;32.37;18.47
61528;BME280;47395;42.032;-8.634;2023-02-18T10:30:32;102192.66;;;32.45;19.54
61528;BME280;47395;42.032;-8.634;2023-02-18T10:32:36;102189.84;;;33.13;17.25
61528;BME280;47395;42.032;-8.634;2023-02-18T10:34:45;102181.84;;;33.49;17.04
61528;BME280;47395;42.032;-8.634;2023-02-18T10:37:40;102181.94;;;33.55;16.44
61528;BME280;47395;42.032;-8.634;2023-02-18T10:45:08;102176.97;;;32.23;18.66
61528;BME280;47395;42.032;-8.634;2023-02-18T10:50:39;102178.19;;;32.89;18.35
61528;BME280;47395;42.032;-8.634;2023-02-18T10:52:46;102176.16;;;33.65;17.22
61528;BME280;47395;42.032;-8.634;2023-02-18T10:55:05;102177.59;;;33.09;17.18
61528;BME280;47395;42.032;-8.634;2023-02-18T10:57:18;102173.56;;;33.79;16.82
61528;BME280;47395;42.032;-8.634;2023-02-18T10:59:30;102165.75;;;34.26;16.65
61528;BME280;47395;42.032;-8.634;2023-02-18T11:01:31;102164.97;;;34.61;16.80
61528;BME280;47395;42.032;-8.634;2023-02-18T11:04:04;102165.19;;;33.43;17.64
61528;BME280;47395;42.032;-8.634;2023-02-18T11:06:21;102170.53;;;34.46;16.07
61528;BME280;47395;42.032;-8.634;2023-02-18T11:08:27;102170.94;;;35.20;15.49
61528;BME280;47395;42.032;-8.634;2023-02-18T11:10:31;102166.81;;;34.25;16.64
61528;BME280;47395;42.032;-8.634;2023-02-18T11:12:45;102164.69;;;35.60;15.82
61528;BME280;47395;42.032;-8.634;2023-02-18T11:14:49;102164.91;;;34.96;15.60
61528;BME280;47395;42.032;-8.634;2023-02-18T11:16:52;102165.59;;;36.22;13.74
61528;BME280;47395;42.032;-8.634;2023-02-18T11:18:57;102155.34;;;36.63;13.77
61528;BME280;47395;42.032;-8.634;2023-02-18T11:21:28;102158.22;;;36.15;13.88